sensor_id;sensor_type;location;lat;lon;timestamp;temperature;humidity
25616;DHT22;13482;48.234;13.006;2022-07-24T00:01:34;23.50;66.90
25616;DHT22;13482;48.234;13.006;2022-07-24T00:04:03;23.40;66.90
25616;DHT22;13482;48.234;13.006;2022-07-24T00:06:31;23.40;67.10
25616;DHT22;13482;48.234;13.006;2022-07-24T00:08:58;23.40;67.10
25616;DHT22;13482;48.234;13.006;2022-07-24T00:11:26;23.30;67.00
25616;DHT22;13482;48.234;13.006;2022-07-24T00:13:53;23.30;67.10
25616;DHT22;13482;48.234;13.006;2022-07-24T00:16:21;23.30;67.20
25616;DHT22;13482;48.234;13.006;2022-07-24T00:18:48;23.20;67.20
25616;DHT22;13482;48.234;13.006;2022-07-24T00:21:16;23.20;67.20
25616;DHT22;13482;48.234;13.006;2022-07-24T00:23:43;23.20;67.30
25616;DHT22;13482;48.234;13.006;2022-07-24T00:26:12;23.10;67.30
25616;DHT22;13482;48.234;13.006;2022-07-24T00:28:39;23.10;67.30
25616;DHT22;13482;48.234;13.006;2022-07-24T00:31:07;23.10;67.30
25616;DHT22;13482;48.234;13.006;2022-07-24T00:33:34;23.00;67.30
25616;DHT22;13482;48.234;13.006;2022-07-24T00:36:02;23.00;67.40
25616;DHT22;13482;48.234;13.006;2022-07-24T00:38:29;23.00;67.40
25616;DHT22;13482;48.234;13.006;2022-07-24T00:40:56;23.00;67.50
25616;DHT22;13482;48.234;13.006;2022-07-24T00:43:23;23.00;67.50
25616;DHT22;13482;48.234;13.006;2022-07-24T00:45:51;23.00;67.50
25616;DHT22;13482;48.234;13.006;2022-07-24T00:48:19;22.90;67.50
25616;DHT22;13482;48.234;13.006;2022-07-24T00:50:48;22.90;67.50
25616;DHT22;13482;48.234;13.006;2022-07-24T00:53:16;22.90;67.70
25616;DHT22;13482;48.234;13.006;2022-07-24T00:55:44;22.90;67.70
25616;DHT22;13482;48.234;13.006;2022-07-24T00:58:11;22.90;67.70
25616;DHT22;13482;48.234;13.006;2022-07-24T01:00:39;22.90;67.80
25616;DHT22;13482;48.234;13.006;2022-07-24T01:03:07;22.90;68.00
25616;DHT22;13482;48.234;13.006;2022-07-24T01:05:34;22.90;68.00
25616;DHT22;13482;48.234;13.006;2022-07-24T01:08:01;22.90;68.00
25616;DHT22;13482;48.234;13.006;2022-07-24T01:10:29;22.90;68.30
25616;DHT22;13482;48.234;13.006;2022-07-24T01:12:57;22.90;68.30
25616;DHT22;13482;48.234;13.006;2022-07-24T01:15:24;22.90;68.40
25616;DHT22;13482;48.234;13.006;2022-07-24T01:17:52;22.90;68.50
25616;DHT22;13482;48.234;13.006;2022-07-24T01:20:19;22.90;68.50
25616;DHT22;13482;48.234;13.006;2022-07-24T01:22:46;22.90;68.60
25616;DHT22;13482;48.234;13.006;2022-07-24T01:25:14;22.90;68.60
25616;DHT22;13482;48.234;13.006;2022-07-24T01:27:41;22.90;68.60
25616;DHT22;13482;48.234;13.006;2022-07-24T01:30:09;22.90;68.50
25616;DHT22;13482;48.234;13.006;2022-07-24T01:32:37;22.90;68.60
25616;DHT22;13482;48.234;13.006;2022-07-24T01:35:05;22.90;68.70
25616;DHT22;13482;48.234;13.006;2022-07-24T01:37:33;22.90;68.70
25616;DHT22;13482;48.234;13.006;2022-07-24T01:40:00;22.90;68.70
25616;DHT22;13482;48.234;13.006;2022-07-24T01:42:28;22.90;68.70
25616;DHT22;13482;48.234;13.006;2022-07-24T01:44:55;22.90;68.70
25616;DHT22;13482;48.234;13.006;2022-07-24T01:47:22;22.90;68.80
25616;DHT22;13482;48.234;13.006;2022-07-24T01:49:49;22.90;68.80
25616;DHT22;13482;48.234;13.006;2022-07-24T01:52:17;22.90;68.60
25616;DHT22;13482;48.234;13.006;2022-07-24T01:54:44;22.90;68.70
25616;DHT22;13482;48.234;13.006;2022-07-24T01:57:11;22.90;68.90
25616;DHT22;13482;48.234;13.006;2022-07-24T01:59:38;22.90;68.80
25616;DHT22;13482;48.234;13.006;2022-07-24T02:02:06;22.90;68.70
25616;DHT22;13482;48.234;13.006;2022-07-24T02:04:33;22.90;68.80
25616;DHT22;13482;48.234;13.006;2022-07-24T02:07:00;22.90;68.70
25616;DHT22;13482;48.234;13.006;2022-07-24T02:09:27;22.80;68.70
25616;DHT22;13482;48.234;13.006;2022-07-24T02:11:55;22.80;68.90
25616;DHT22;13482;48.234;13.006;2022-07-24T02:14:22;22.80;68.90
25616;DHT22;13482;48.234;13.006;2022-07-24T02:16:49;22.80;69.00
25616;DHT22;13482;48.234;13.006;2022-07-24T02:19:16;22.80;68.90
25616;DHT22;13482;48.234;13.006;2022-07-24T02:21:44;22.80;68.90
25616;DHT22;13482;48.234;13.006;2022-07-24T02:24:11;22.80;69.00
25616;DHT22;13482;48.234;13.006;2022-07-24T02:26:38;22.80;69.20
25616;DHT22;13482;48.234;13.006;2022-07-24T02:29:06;22.70;69.30
25616;DHT22;13482;48.234;13.006;2022-07-24T02:31:34;22.70;69.30
25616;DHT22;13482;48.234;13.006;2022-07-24T02:34:01;22.70;69.30
25616;DHT22;13482;48.234;13.006;2022-07-24T02:36:28;22.70;69.40
25616;DHT22;13482;48.234;13.006;2022-07-24T02:38:55;22.70;69.30
25616;DHT22;13482;48.234;13.006;2022-07-24T02:41:23;22.70;69.30
25616;DHT22;13482;48.234;13.006;2022-07-24T02:43:50;22.60;69.30
25616;DHT22;13482;48.234;13.006;2022-07-24T02:46:17;22.60;69.30
25616;DHT22;13482;48.234;13.006;2022-07-24T02:48:44;22.60;69.20
25616;DHT22;13482;48.234;13.006;2022-07-24T02:51:12;22.60;69.10
25616;DHT22;13482;48.234;13.006;2022-07-24T02:53:39;22.50;69.00
25616;DHT22;13482;48.234;13.006;2022-07-24T02:56:06;22.50;69.20
25616;DHT22;13482;48.234;13.006;2022-07-24T02:58:33;22.50;69.30
25616;DHT22;13482;48.234;13.006;2022-07-24T03:01:01;22.50;69.30
25616;DHT22;13482;48.234;13.006;2022-07-24T03:03:28;22.40;69.40
25616;DHT22;13482;48.234;13.006;2022-07-24T03:05:56;22.40;69.20
25616;DHT22;13482;48.234;13.006;2022-07-24T03:08:23;22.40;69.20
25616;DHT22;13482;48.234;13.006;2022-07-24T03:10:50;22.30;69.20
25616;DHT22;13482;48.234;13.006;2022-07-24T03:13:17;22.30;69.10
25616;DHT22;13482;48.234;13.006;2022-07-24T03:15:44;22.30;69.00
25616;DHT22;13482;48.234;13.006;2022-07-24T03:18:11;22.20;69.30
25616;DHT22;13482;48.234;13.006;2022-07-24T03:20:47;22.20;69.40
25616;DHT22;13482;48.234;13.006;2022-07-24T03:23:14;22.20;69.40
25616;DHT22;13482;48.234;13.006;2022-07-24T03:25:42;22.20;69.40
25616;DHT22;13482;48.234;13.006;2022-07-24T03:28:09;22.10;69.30
25616;DHT22;13482;48.234;13.006;2022-07-24T03:30:36;22.10;69.30
25616;DHT22;13482;48.234;13.006;2022-07-24T03:33:03;22.10;69.30
25616;DHT22;13482;48.234;13.006;2022-07-24T03:35:31;22.00;69.40
25616;DHT22;13482;48.234;13.006;2022-07-24T03:37:58;22.00;69.50
25616;DHT22;13482;48.234;13.006;2022-07-24T03:40:25;22.00;69.40
25616;DHT22;13482;48.234;13.006;2022-07-24T03:42:53;21.90;69.50
25616;DHT22;13482;48.234;13.006;2022-07-24T03:45:20;21.90;69.60
25616;DHT22;13482;48.234;13.006;2022-07-24T03:47:47;21.90;69.60
25616;DHT22;13482;48.234;13.006;2022-07-24T03:50:14;21.90;69.70
25616;DHT22;13482;48.234;13.006;2022-07-24T03:52:48;21.90;69.80
25616;DHT22;13482;48.234;13.006;2022-07-24T03:55:16;21.80;69.80
25616;DHT22;13482;48.234;13.006;2022-07-24T03:57:43;21.80;69.90
25616;DHT22;13482;48.234;13.006;2022-07-24T04:00:11;21.80;70.00
25616;DHT22;13482;48.234;13.006;2022-07-24T04:02:39;21.80;70.00
25616;DHT22;13482;48.234;13.006;2022-07-24T04:05:08;21.70;70.00
25616;DHT22;13482;48.234;13.006;2022-07-24T04:07:36;21.70;70.00
25616;DHT22;13482;48.234;13.006;2022-07-24T04:10:06;21.70;70.10
25616;DHT22;13482;48.234;13.006;2022-07-24T04:12:34;21.70;70.20
25616;DHT22;13482;48.234;13.006;2022-07-24T04:15:01;21.70;70.30
25616;DHT22;13482;48.234;13.006;2022-07-24T04:17:29;21.70;70.40
25616;DHT22;13482;48.234;13.006;2022-07-24T04:19:56;21.70;70.60
25616;DHT22;13482;48.234;13.006;2022-07-24T04:22:23;21.70;70.70
25616;DHT22;13482;48.234;13.006;2022-07-24T04:24:51;21.80;70.80
25616;DHT22;13482;48.234;13.006;2022-07-24T04:27:18;21.80;71.00
25616;DHT22;13482;48.234;13.006;2022-07-24T04:29:45;21.80;71.00
25616;DHT22;13482;48.234;13.006;2022-07-24T04:32:15;21.90;71.10
25616;DHT22;13482;48.234;13.006;2022-07-24T04:34:42;21.90;71.20
25616;DHT22;13482;48.234;13.006;2022-07-24T04:37:09;22.00;71.20
25616;DHT22;13482;48.234;13.006;2022-07-24T04:39:37;22.00;71.10
25616;DHT22;13482;48.234;13.006;2022-07-24T04:42:05;22.00;71.20
25616;DHT22;13482;48.234;13.006;2022-07-24T04:44:32;22.10;71.20
25616;DHT22;13482;48.234;13.006;2022-07-24T04:47:00;22.10;71.10
25616;DHT22;13482;48.234;13.006;2022-07-24T04:49:27;22.20;71.10
25616;DHT22;13482;48.234;13.006;2022-07-24T04:51:54;22.20;71.30
25616;DHT22;13482;48.234;13.006;2022-07-24T04:54:21;22.30;71.30
25616;DHT22;13482;48.234;13.006;2022-07-24T04:56:48;22.30;71.50
25616;DHT22;13482;48.234;13.006;2022-07-24T04:59:16;22.40;71.60
25616;DHT22;13482;48.234;13.006;2022-07-24T05:01:43;22.50;71.80
25616;DHT22;13482;48.234;13.006;2022-07-24T05:04:14;22.60;71.80
25616;DHT22;13482;48.234;13.006;2022-07-24T05:06:41;22.70;71.80
25616;DHT22;13482;48.234;13.006;2022-07-24T05:09:08;22.80;71.90
25616;DHT22;13482;48.234;13.006;2022-07-24T05:11:36;22.90;71.90
25616;DHT22;13482;48.234;13.006;2022-07-24T05:14:03;23.00;72.00
25616;DHT22;13482;48.234;13.006;2022-07-24T05:16:30;23.10;72.00
25616;DHT22;13482;48.234;13.006;2022-07-24T05:18:57;23.30;72.00
25616;DHT22;13482;48.234;13.006;2022-07-24T05:21:25;23.40;71.90
25616;DHT22;13482;48.234;13.006;2022-07-24T05:23:54;23.50;71.80
25616;DHT22;13482;48.234;13.006;2022-07-24T05:26:21;23.60;71.80
25616;DHT22;13482;48.234;13.006;2022-07-24T05:28:49;23.80;71.70
25616;DHT22;13482;48.234;13.006;2022-07-24T05:31:16;23.90;71.60
25616;DHT22;13482;48.234;13.006;2022-07-24T05:33:43;24.00;71.60
25616;DHT22;13482;48.234;13.006;2022-07-24T05:36:10;24.10;71.50
25616;DHT22;13482;48.234;13.006;2022-07-24T05:38:38;24.30;71.30
25616;DHT22;13482;48.234;13.006;2022-07-24T05:41:06;24.40;71.20
25616;DHT22;13482;48.234;13.006;2022-07-24T05:43:34;24.50;71.10
25616;DHT22;13482;48.234;13.006;2022-07-24T05:46:01;24.70;71.10
25616;DHT22;13482;48.234;13.006;2022-07-24T05:48:28;24.80;71.00
25616;DHT22;13482;48.234;13.006;2022-07-24T05:50:55;24.90;71.10
25616;DHT22;13482;48.234;13.006;2022-07-24T05:53:23;25.00;70.90
25616;DHT22;13482;48.234;13.006;2022-07-24T05:55:51;25.20;70.80
25616;DHT22;13482;48.234;13.006;2022-07-24T05:58:18;25.30;70.70
25616;DHT22;13482;48.234;13.006;2022-07-24T06:00:45;25.50;70.70
25616;DHT22;13482;48.234;13.006;2022-07-24T06:03:13;25.60;70.50
25616;DHT22;13482;48.234;13.006;2022-07-24T06:05:40;25.80;70.40
25616;DHT22;13482;48.234;13.006;2022-07-24T06:08:08;25.90;70.20
25616;DHT22;13482;48.234;13.006;2022-07-24T06:10:35;26.00;70.10
25616;DHT22;13482;48.234;13.006;2022-07-24T06:13:03;26.20;70.00
25616;DHT22;13482;48.234;13.006;2022-07-24T06:15:30;26.30;69.90
25616;DHT22;13482;48.234;13.006;2022-07-24T06:18:04;26.50;69.70
25616;DHT22;13482;48.234;13.006;2022-07-24T06:20:31;26.60;69.50
25616;DHT22;13482;48.234;13.006;2022-07-24T06:22:58;26.80;69.40
25616;DHT22;13482;48.234;13.006;2022-07-24T06:25:26;26.90;69.30
25616;DHT22;13482;48.234;13.006;2022-07-24T06:27:53;27.10;69.30
25616;DHT22;13482;48.234;13.006;2022-07-24T06:30:22;27.20;69.00
25616;DHT22;13482;48.234;13.006;2022-07-24T06:32:56;27.40;68.90
25616;DHT22;13482;48.234;13.006;2022-07-24T06:35:26;27.60;68.70
25616;DHT22;13482;48.234;13.006;2022-07-24T06:37:54;27.70;68.50
25616;DHT22;13482;48.234;13.006;2022-07-24T06:40:22;27.80;68.40
25616;DHT22;13482;48.234;13.006;2022-07-24T06:42:50;28.00;68.20
25616;DHT22;13482;48.234;13.006;2022-07-24T06:45:17;28.10;68.00
25616;DHT22;13482;48.234;13.006;2022-07-24T06:47:44;28.20;68.00
25616;DHT22;13482;48.234;13.006;2022-07-24T06:50:13;28.40;67.70
25616;DHT22;13482;48.234;13.006;2022-07-24T06:52:41;28.50;67.40
25616;DHT22;13482;48.234;13.006;2022-07-24T06:55:08;28.60;67.20
25616;DHT22;13482;48.234;13.006;2022-07-24T06:57:36;28.80;67.10
25616;DHT22;13482;48.234;13.006;2022-07-24T07:00:08;28.90;67.00
25616;DHT22;13482;48.234;13.006;2022-07-24T07:02:38;29.00;66.40
25616;DHT22;13482;48.234;13.006;2022-07-24T07:05:06;29.20;66.30
25616;DHT22;13482;48.234;13.006;2022-07-24T07:07:35;29.30;66.20
25616;DHT22;13482;48.234;13.006;2022-07-24T07:10:04;29.40;66.00
25616;DHT22;13482;48.234;13.006;2022-07-24T07:12:32;29.50;66.10
25616;DHT22;13482;48.234;13.006;2022-07-24T07:15:09;29.60;65.80
25616;DHT22;13482;48.234;13.006;2022-07-24T07:17:40;29.70;65.80
25616;DHT22;13482;48.234;13.006;2022-07-24T07:20:09;29.90;65.50
25616;DHT22;13482;48.234;13.006;2022-07-24T07:22:37;30.00;65.00
25616;DHT22;13482;48.234;13.006;2022-07-24T07:25:06;30.20;65.20
25616;DHT22;13482;48.234;13.006;2022-07-24T07:27:33;30.30;65.00
25616;DHT22;13482;48.234;13.006;2022-07-24T07:30:05;30.40;64.90
25616;DHT22;13482;48.234;13.006;2022-07-24T07:32:33;30.50;64.30
25616;DHT22;13482;48.234;13.006;2022-07-24T07:35:01;30.60;64.30
25616;DHT22;13482;48.234;13.006;2022-07-24T07:37:31;30.70;64.10
25616;DHT22;13482;48.234;13.006;2022-07-24T07:39:58;30.80;63.60
25616;DHT22;13482;48.234;13.006;2022-07-24T07:42:26;30.90;63.60
25616;DHT22;13482;48.234;13.006;2022-07-24T07:44:53;31.00;63.40
25616;DHT22;13482;48.234;13.006;2022-07-24T07:47:20;31.10;63.00
25616;DHT22;13482;48.234;13.006;2022-07-24T07:49:47;31.10;62.80
25616;DHT22;13482;48.234;13.006;2022-07-24T07:52:15;31.20;62.80
25616;DHT22;13482;48.234;13.006;2022-07-24T07:54:42;31.30;62.80
25616;DHT22;13482;48.234;13.006;2022-07-24T07:57:09;31.30;62.50
25616;DHT22;13482;48.234;13.006;2022-07-24T07:59:36;31.40;62.30
25616;DHT22;13482;48.234;13.006;2022-07-24T08:02:04;31.50;62.30
25616;DHT22;13482;48.234;13.006;2022-07-24T08:04:32;31.60;62.30
25616;DHT22;13482;48.234;13.006;2022-07-24T08:06:59;31.60;62.10
25616;DHT22;13482;48.234;13.006;2022-07-24T08:09:27;31.80;61.90
25616;DHT22;13482;48.234;13.006;2022-07-24T08:11:55;31.80;61.70
25616;DHT22;13482;48.234;13.006;2022-07-24T08:14:22;31.90;61.60
25616;DHT22;13482;48.234;13.006;2022-07-24T08:16:49;31.90;61.50
25616;DHT22;13482;48.234;13.006;2022-07-24T08:19:17;32.00;61.60
25616;DHT22;13482;48.234;13.006;2022-07-24T08:21:44;32.10;61.50
25616;DHT22;13482;48.234;13.006;2022-07-24T08:24:13;32.20;61.30
25616;DHT22;13482;48.234;13.006;2022-07-24T08:26:48;32.30;61.10
25616;DHT22;13482;48.234;13.006;2022-07-24T08:29:16;32.40;61.30
25616;DHT22;13482;48.234;13.006;2022-07-24T08:31:44;32.50;61.20
25616;DHT22;13482;48.234;13.006;2022-07-24T08:34:11;32.60;60.80
25616;DHT22;13482;48.234;13.006;2022-07-24T08:36:38;32.70;60.50
25616;DHT22;13482;48.234;13.006;2022-07-24T08:39:05;32.80;60.40
25616;DHT22;13482;48.234;13.006;2022-07-24T08:41:36;32.90;60.20
25616;DHT22;13482;48.234;13.006;2022-07-24T08:44:04;33.00;60.20
25616;DHT22;13482;48.234;13.006;2022-07-24T08:46:32;33.10;60.00
25616;DHT22;13482;48.234;13.006;2022-07-24T08:49:11;33.20;59.90
25616;DHT22;13482;48.234;13.006;2022-07-24T08:51:41;33.30;59.30
25616;DHT22;13482;48.234;13.006;2022-07-24T08:54:10;33.40;59.30
25616;DHT22;13482;48.234;13.006;2022-07-24T08:56:39;33.50;59.30
25616;DHT22;13482;48.234;13.006;2022-07-24T08:59:20;33.60;59.30
25616;DHT22;13482;48.234;13.006;2022-07-24T09:01:53;33.70;59.00
25616;DHT22;13482;48.234;13.006;2022-07-24T09:04:40;33.80;59.40
25616;DHT22;13482;48.234;13.006;2022-07-24T09:09:44;34.00;59.10
25616;DHT22;13482;48.234;13.006;2022-07-24T09:12:14;34.10;58.90
25616;DHT22;13482;48.234;13.006;2022-07-24T09:14:45;34.20;58.50
25616;DHT22;13482;48.234;13.006;2022-07-24T09:17:18;34.30;58.20
25616;DHT22;13482;48.234;13.006;2022-07-24T09:19:51;34.40;58.20
25616;DHT22;13482;48.234;13.006;2022-07-24T09:22:40;34.50;58.10
25616;DHT22;13482;48.234;13.006;2022-07-24T09:25:28;34.60;57.50
25616;DHT22;13482;48.234;13.006;2022-07-24T09:28:00;34.70;57.10
25616;DHT22;13482;48.234;13.006;2022-07-24T09:30:36;34.80;57.70
25616;DHT22;13482;48.234;13.006;2022-07-24T09:35:41;35.00;57.00
25616;DHT22;13482;48.234;13.006;2022-07-24T09:38:17;35.00;56.90
25616;DHT22;13482;48.234;13.006;2022-07-24T09:40:56;35.10;56.50
25616;DHT22;13482;48.234;13.006;2022-07-24T09:43:32;35.20;55.90
25616;DHT22;13482;48.234;13.006;2022-07-24T09:46:07;35.30;55.90
25616;DHT22;13482;48.234;13.006;2022-07-24T09:48:52;35.40;56.20
25616;DHT22;13482;48.234;13.006;2022-07-24T09:51:24;35.40;56.00
25616;DHT22;13482;48.234;13.006;2022-07-24T09:53:58;35.50;55.90
25616;DHT22;13482;48.234;13.006;2022-07-24T09:56:27;35.60;55.60
25616;DHT22;13482;48.234;13.006;2022-07-24T09:58:56;35.70;56.00
25616;DHT22;13482;48.234;13.006;2022-07-24T10:01:27;35.80;55.50
25616;DHT22;13482;48.234;13.006;2022-07-24T10:03:56;35.80;55.20
25616;DHT22;13482;48.234;13.006;2022-07-24T10:06:25;35.90;54.70
25616;DHT22;13482;48.234;13.006;2022-07-24T10:08:54;35.90;54.20
25616;DHT22;13482;48.234;13.006;2022-07-24T10:11:22;35.90;53.90
25616;DHT22;13482;48.234;13.006;2022-07-24T10:13:50;35.80;53.40
25616;DHT22;13482;48.234;13.006;2022-07-24T10:16:29;35.60;53.10
25616;DHT22;13482;48.234;13.006;2022-07-24T10:19:02;35.50;52.70
25616;DHT22;13482;48.234;13.006;2022-07-24T10:21:34;35.40;53.60
25616;DHT22;13482;48.234;13.006;2022-07-24T10:24:19;35.40;53.90
25616;DHT22;13482;48.234;13.006;2022-07-24T10:27:33;35.50;52.80
25616;DHT22;13482;48.234;13.006;2022-07-24T10:30:11;35.50;52.20
25616;DHT22;13482;48.234;13.006;2022-07-24T10:32:38;35.60;52.40
25616;DHT22;13482;48.234;13.006;2022-07-24T10:35:20;35.60;53.30
25616;DHT22;13482;48.234;13.006;2022-07-24T10:38:22;35.70;52.70
25616;DHT22;13482;48.234;13.006;2022-07-24T10:41:02;35.80;52.40
25616;DHT22;13482;48.234;13.006;2022-07-24T10:43:35;36.00;52.10
25616;DHT22;13482;48.234;13.006;2022-07-24T10:48:34;36.30;51.90
25616;DHT22;13482;48.234;13.006;2022-07-24T10:51:04;36.40;51.90
25616;DHT22;13482;48.234;13.006;2022-07-24T10:56:38;36.60;52.50
25616;DHT22;13482;48.234;13.006;2022-07-24T10:59:11;36.80;51.00
25616;DHT22;13482;48.234;13.006;2022-07-24T11:01:44;36.90;51.00
25616;DHT22;13482;48.234;13.006;2022-07-24T11:06:56;37.10;50.20
25616;DHT22;13482;48.234;13.006;2022-07-24T11:09:28;37.10;50.30
25616;DHT22;13482;48.234;13.006;2022-07-24T11:17:38;37.30;48.80
25616;DHT22;13482;48.234;13.006;2022-07-24T11:20:17;37.30;47.70
25616;DHT22;13482;48.234;13.006;2022-07-24T11:22:51;37.30;48.60
25616;DHT22;13482;48.234;13.006;2022-07-24T11:25:27;37.30;48.90
25616;DHT22;13482;48.234;13.006;2022-07-24T11:30:33;37.50;49.40
25616;DHT22;13482;48.234;13.006;2022-07-24T11:33:01;37.50;49.50
25616;DHT22;13482;48.234;13.006;2022-07-24T11:35:36;37.60;48.90
25616;DHT22;13482;48.234;13.006;2022-07-24T11:38:06;37.70;47.10
25616;DHT22;13482;48.234;13.006;2022-07-24T11:40:36;37.60;48.00
25616;DHT22;13482;48.234;13.006;2022-07-24T11:43:05;37.50;47.70
25616;DHT22;13482;48.234;13.006;2022-07-24T11:45:38;37.40;48.40
25616;DHT22;13482;48.234;13.006;2022-07-24T11:48:06;37.30;48.20
25616;DHT22;13482;48.234;13.006;2022-07-24T11:50:34;37.30;48.50
25616;DHT22;13482;48.234;13.006;2022-07-24T11:53:06;37.30;48.50
25616;DHT22;13482;48.234;13.006;2022-07-24T11:55:34;37.30;48.00
25616;DHT22;13482;48.234;13.006;2022-07-24T11:58:01;37.30;47.80
25616;DHT22;13482;48.234;13.006;2022-07-24T12:00:48;37.20;47.70
25616;DHT22;13482;48.234;13.006;2022-07-24T12:03:15;37.10;47.50
25616;DHT22;13482;48.234;13.006;2022-07-24T12:05:43;37.00;47.10
25616;DHT22;13482;48.234;13.006;2022-07-24T12:08:21;36.90;47.20
25616;DHT22;13482;48.234;13.006;2022-07-24T12:10:55;36.70;47.00
25616;DHT22;13482;48.234;13.006;2022-07-24T12:13:23;36.70;48.00
25616;DHT22;13482;48.234;13.006;2022-07-24T12:15:50;36.60;48.20
25616;DHT22;13482;48.234;13.006;2022-07-24T12:18:18;36.70;48.10
25616;DHT22;13482;48.234;13.006;2022-07-24T12:20:58;36.70;47.90
25616;DHT22;13482;48.234;13.006;2022-07-24T12:23:27;36.70;47.30
25616;DHT22;13482;48.234;13.006;2022-07-24T12:26:00;36.60;47.80
25616;DHT22;13482;48.234;13.006;2022-07-24T12:28:27;36.50;48.00
25616;DHT22;13482;48.234;13.006;2022-07-24T12:30:55;36.50;48.10
25616;DHT22;13482;48.234;13.006;2022-07-24T12:33:24;36.50;48.30
25616;DHT22;13482;48.234;13.006;2022-07-24T12:36:00;36.60;48.60
25616;DHT22;13482;48.234;13.006;2022-07-24T12:38:40;36.70;48.90
25616;DHT22;13482;48.234;13.006;2022-07-24T12:41:11;36.80;48.70
25616;DHT22;13482;48.234;13.006;2022-07-24T12:43:49;36.80;49.00
25616;DHT22;13482;48.234;13.006;2022-07-24T12:46:34;37.00;48.40
25616;DHT22;13482;48.234;13.006;2022-07-24T12:49:19;37.00;47.70
25616;DHT22;13482;48.234;13.006;2022-07-24T12:51:53;37.10;48.00
25616;DHT22;13482;48.234;13.006;2022-07-24T12:57:12;37.20;47.90
25616;DHT22;13482;48.234;13.006;2022-07-24T12:59:45;37.30;47.40
25616;DHT22;13482;48.234;13.006;2022-07-24T13:04:55;37.30;47.70
25616;DHT22;13482;48.234;13.006;2022-07-24T13:07:25;37.40;47.40
25616;DHT22;13482;48.234;13.006;2022-07-24T13:09:53;37.40;47.70
25616;DHT22;13482;48.234;13.006;2022-07-24T13:12:20;37.40;47.70
25616;DHT22;13482;48.234;13.006;2022-07-24T13:14:48;37.40;47.70
25616;DHT22;13482;48.234;13.006;2022-07-24T13:17:18;37.40;47.70
25616;DHT22;13482;48.234;13.006;2022-07-24T13:19:48;37.40;47.50
25616;DHT22;13482;48.234;13.006;2022-07-24T13:22:17;37.40;47.70
25616;DHT22;13482;48.234;13.006;2022-07-24T13:24:45;37.50;47.80
25616;DHT22;13482;48.234;13.006;2022-07-24T13:27:13;37.60;47.80
25616;DHT22;13482;48.234;13.006;2022-07-24T13:29:42;37.60;47.70
25616;DHT22;13482;48.234;13.006;2022-07-24T13:32:10;37.70;47.70
25616;DHT22;13482;48.234;13.006;2022-07-24T13:34:37;37.80;47.90
25616;DHT22;13482;48.234;13.006;2022-07-24T13:37:05;37.80;47.30
25616;DHT22;13482;48.234;13.006;2022-07-24T13:39:36;37.90;46.40
25616;DHT22;13482;48.234;13.006;2022-07-24T13:42:08;37.80;46.50
25616;DHT22;13482;48.234;13.006;2022-07-24T13:44:35;37.80;46.50
25616;DHT22;13482;48.234;13.006;2022-07-24T13:47:03;37.70;47.00
25616;DHT22;13482;48.234;13.006;2022-07-24T13:49:31;37.70;47.50
25616;DHT22;13482;48.234;13.006;2022-07-24T13:51:58;37.80;47.40
25616;DHT22;13482;48.234;13.006;2022-07-24T13:54:25;37.90;46.80
25616;DHT22;13482;48.234;13.006;2022-07-24T13:56:55;37.90;46.80
25616;DHT22;13482;48.234;13.006;2022-07-24T13:59:23;38.00;46.50
25616;DHT22;13482;48.234;13.006;2022-07-24T14:01:50;38.10;46.50
25616;DHT22;13482;48.234;13.006;2022-07-24T14:04:18;38.20;46.30
25616;DHT22;13482;48.234;13.006;2022-07-24T14:06:56;38.20;45.50
25616;DHT22;13482;48.234;13.006;2022-07-24T14:09:24;38.20;45.30
25616;DHT22;13482;48.234;13.006;2022-07-24T14:11:53;38.10;45.50
25616;DHT22;13482;48.234;13.006;2022-07-24T14:14:20;38.00;45.10
25616;DHT22;13482;48.234;13.006;2022-07-24T14:16:48;38.00;45.10
25616;DHT22;13482;48.234;13.006;2022-07-24T14:19:15;37.90;44.80
25616;DHT22;13482;48.234;13.006;2022-07-24T14:21:43;37.80;45.00
25616;DHT22;13482;48.234;13.006;2022-07-24T14:24:16;37.70;45.00
25616;DHT22;13482;48.234;13.006;2022-07-24T14:26:46;37.60;45.10
25616;DHT22;13482;48.234;13.006;2022-07-24T14:29:13;37.60;44.90
25616;DHT22;13482;48.234;13.006;2022-07-24T14:31:41;37.60;44.90
25616;DHT22;13482;48.234;13.006;2022-07-24T14:34:08;37.50;45.10
25616;DHT22;13482;48.234;13.006;2022-07-24T14:36:35;37.50;45.40
25616;DHT22;13482;48.234;13.006;2022-07-24T14:39:03;37.60;45.40
25616;DHT22;13482;48.234;13.006;2022-07-24T14:41:31;37.60;45.40
25616;DHT22;13482;48.234;13.006;2022-07-24T14:43:58;37.70;45.40
25616;DHT22;13482;48.234;13.006;2022-07-24T14:46:32;37.70;45.50
25616;DHT22;13482;48.234;13.006;2022-07-24T14:49:00;37.80;45.30
25616;DHT22;13482;48.234;13.006;2022-07-24T14:51:27;37.90;45.30
25616;DHT22;13482;48.234;13.006;2022-07-24T14:53:54;38.00;44.70
25616;DHT22;13482;48.234;13.006;2022-07-24T14:56:22;37.90;44.70
25616;DHT22;13482;48.234;13.006;2022-07-24T14:58:53;38.00;44.80
25616;DHT22;13482;48.234;13.006;2022-07-24T15:01:21;38.00;45.10
25616;DHT22;13482;48.234;13.006;2022-07-24T15:03:48;38.00;45.20
25616;DHT22;13482;48.234;13.006;2022-07-24T15:06:28;38.10;45.50
25616;DHT22;13482;48.234;13.006;2022-07-24T15:08:56;38.20;45.10
25616;DHT22;13482;48.234;13.006;2022-07-24T15:11:23;38.30;45.10
25616;DHT22;13482;48.234;13.006;2022-07-24T15:13:52;38.30;44.90
25616;DHT22;13482;48.234;13.006;2022-07-24T15:16:19;38.40;44.60
25616;DHT22;13482;48.234;13.006;2022-07-24T15:18:47;38.50;44.70
25616;DHT22;13482;48.234;13.006;2022-07-24T15:21:14;38.50;44.90
25616;DHT22;13482;48.234;13.006;2022-07-24T15:23:42;38.60;44.80
25616;DHT22;13482;48.234;13.006;2022-07-24T15:26:09;38.70;44.60
25616;DHT22;13482;48.234;13.006;2022-07-24T15:28:36;38.80;44.60
25616;DHT22;13482;48.234;13.006;2022-07-24T15:31:03;38.90;44.60
25616;DHT22;13482;48.234;13.006;2022-07-24T15:33:33;39.00;44.30
25616;DHT22;13482;48.234;13.006;2022-07-24T15:36:00;39.10;44.20
25616;DHT22;13482;48.234;13.006;2022-07-24T15:38:27;39.20;44.20
25616;DHT22;13482;48.234;13.006;2022-07-24T15:40:54;39.30;44.10
25616;DHT22;13482;48.234;13.006;2022-07-24T15:43:22;39.50;44.10
25616;DHT22;13482;48.234;13.006;2022-07-24T15:45:50;39.60;43.90
25616;DHT22;13482;48.234;13.006;2022-07-24T15:48:17;39.70;44.00
25616;DHT22;13482;48.234;13.006;2022-07-24T15:50:44;39.90;43.80
25616;DHT22;13482;48.234;13.006;2022-07-24T15:53:11;40.10;43.50
25616;DHT22;13482;48.234;13.006;2022-07-24T15:55:39;40.30;43.50